Edith Kirk — 2DST9 — position and weather

sailwx.info

Track history (hours):
 
Tides and Currents Weather Stations Pressure Air Temp Water Temp Dewpoint Dewpoint Depression Visibility Wind Speed Wind Dir Waves Ship Positions

Edith Kirk

Last reported at 2015-Aug-23 04:17 UTC. Time now 2015-Aug-30 11:58 UTC.
Position N 18°04' W 061°59'.

Length 183 m; draft 7.6 m.

Type: Ship. MMSI: 235081745.

Date/timePositionNaut miles runAvg speedWind from/ knotsBaromVisibWave heightAir tempDewpointWater temp
2015-Aug-23 04:17N 18°04' W 061°59'2413.2
2015-Aug-23 02:30N 17°53' W 062°21'46 1.0
2015-Aug-21 03:29N 17°41' W 063°07'9 9.5
2015-Aug-21 02:33N 17°49' W 063°11'10 9.8
2015-Aug-21 01:33N 17°58' W 063°15'1010.0
2015-Aug-21 00:33N 18°07' W 063°19'10 9.9
2015-Aug-20 23:33N 18°16' W 063°24'  
2015-Aug-16 02:24N 38°10' W 070°58'2110.3
2015-Aug-16 00:23N 38°24' W 071°17'1110.3
2015-Aug-15 23:20N 38°32' W 071°27'810.1
2015-Aug-15 22:32N 38°38' W 071°34'1110.1
2015-Aug-15 21:29N 38°45' W 071°44'1110.1
2015-Aug-15 20:25N 38°53' W 071°54'1010.6
2015-Aug-15 19:31N 38°59' W 072°02'2110.6
2015-Aug-15 17:33N 39°14' W 072°21'1110.8
2015-Aug-15 16:33N 39°22' W 072°31'1211.9
2015-Aug-15 15:33N 39°30' W 072°42'1211.6
2015-Aug-15 14:33N 39°38' W 072°53'1311.6
2015-Aug-15 13:28N 39°47' W 073°05'1111.4
2015-Aug-15 12:32N 39°55' W 073°14'1111.7
2015-Aug-15 11:33N 40°03' W 073°25'1211.6
2015-Aug-15 10:33N 40°12' W 073°34'1111.2
2015-Aug-15 09:33N 40°21' W 073°43'10 9.7
2015-Aug-15 08:33N 40°28' W 073°52'1313.4
2015-Aug-15 07:33N 40°38' W 074°03'1 0.6
2015-Aug-15 06:33N 40°39' W 074°03'0 0.0
2015-Aug-15 05:33N 40°39' W 074°03'0 0.1
2015-Aug-15 04:33N 40°39' W 074°03'0 0.1
2015-Aug-15 03:33N 40°39' W 074°03'0 0.2
2015-Aug-15 02:33N 40°39' W 074°03'0 0.0
2015-Aug-15 01:33N 40°39' W 074°03'2 2.0
2015-Aug-15 00:34N 40°39' W 074°05'0 0.0
2015-Aug-13 19:13N 40°39' W 074°05'0 0.0
2015-Aug-13 18:34N 40°39' W 074°05'0 0.0
2015-Aug-13 17:33N 40°39' W 074°05'0 0.0
2015-Aug-13 12:03N 40°39' W 074°05'1 1.7
2015-Aug-13 11:34N 40°39' W 074°04'7 6.9
2015-Aug-13 10:33N 40°32' W 074°01'1010.2
2015-Aug-13 09:33N 40°27' W 073°50'5 5.2
2015-Aug-13 08:33N 40°28' W 073°43'1 0.6
2015-Aug-13 07:33N 40°29' W 073°43'0 0.2
2015-Aug-13 06:33N 40°29' W 073°43'4 3.5
2015-Aug-13 05:33N 40°26' W 073°42'6 5.5
2015-Aug-13 04:33N 40°21' W 073°38'  
Track history (hours):
 
Tides and Currents Weather Stations Pressure Air Temp Water Temp Dewpoint Dewpoint Depression Visibility Wind Speed Wind Dir Waves Ship Positions

Edith Kirk

Last reported at 2015-Aug-23 04:17 UTC. Time now 2015-Aug-30 11:58 UTC.
Position N 18°04' W 061°59'.

Length 183 m; draft 7.6 m.

Type: Ship. MMSI: 235081745.

Date/timePositionNaut miles runAvg speedWind from/ knotsBaromVisibWave heightAir tempDewpointWater temp
2015-Aug-23 04:17N 18°04' W 061°59'2413.2
2015-Aug-23 02:30N 17°53' W 062°21'46 1.0
2015-Aug-21 03:29N 17°41' W 063°07'9 9.5
2015-Aug-21 02:33N 17°49' W 063°11'10 9.8
2015-Aug-21 01:33N 17°58' W 063°15'1010.0
2015-Aug-21 00:33N 18°07' W 063°19'10 9.9
2015-Aug-20 23:33N 18°16' W 063°24'  
2015-Aug-16 02:24N 38°10' W 070°58'2110.3
2015-Aug-16 00:23N 38°24' W 071°17'1110.3
2015-Aug-15 23:20N 38°32' W 071°27'810.1
2015-Aug-15 22:32N 38°38' W 071°34'1110.1
2015-Aug-15 21:29N 38°45' W 071°44'1110.1
2015-Aug-15 20:25N 38°53' W 071°54'1010.6
2015-Aug-15 19:31N 38°59' W 072°02'2110.6
2015-Aug-15 17:33N 39°14' W 072°21'1110.8
2015-Aug-15 16:33N 39°22' W 072°31'1211.9
2015-Aug-15 15:33N 39°30' W 072°42'1211.6
2015-Aug-15 14:33N 39°38' W 072°53'1311.6
2015-Aug-15 13:28N 39°47' W 073°05'1111.4
2015-Aug-15 12:32N 39°55' W 073°14'1111.7
2015-Aug-15 11:33N 40°03' W 073°25'1211.6
2015-Aug-15 10:33N 40°12' W 073°34'1111.2
2015-Aug-15 09:33N 40°21' W 073°43'10 9.7
2015-Aug-15 08:33N 40°28' W 073°52'1313.4
2015-Aug-15 07:33N 40°38' W 074°03'1 0.6
2015-Aug-15 06:33N 40°39' W 074°03'0 0.0
2015-Aug-15 05:33N 40°39' W 074°03'0 0.1
2015-Aug-15 04:33N 40°39' W 074°03'0 0.1
2015-Aug-15 03:33N 40°39' W 074°03'0 0.2
2015-Aug-15 02:33N 40°39' W 074°03'0 0.0
2015-Aug-15 01:33N 40°39' W 074°03'2 2.0
2015-Aug-15 00:34N 40°39' W 074°05'0 0.0
2015-Aug-13 19:13N 40°39' W 074°05'0 0.0
2015-Aug-13 18:34N 40°39' W 074°05'0 0.0
2015-Aug-13 17:33N 40°39' W 074°05'0 0.0
2015-Aug-13 12:03N 40°39' W 074°05'1 1.7
2015-Aug-13 11:34N 40°39' W 074°04'7 6.9
2015-Aug-13 10:33N 40°32' W 074°01'1010.2
2015-Aug-13 09:33N 40°27' W 073°50'5 5.2
2015-Aug-13 08:33N 40°28' W 073°43'1 0.6
2015-Aug-13 07:33N 40°29' W 073°43'0 0.2
2015-Aug-13 06:33N 40°29' W 073°43'4 3.5
2015-Aug-13 05:33N 40°26' W 073°42'6 5.5
2015-Aug-13 04:33N 40°21' W 073°38'  

Dump ship's entire track history